Time;durP1;ratioP1;P1;durP2;ratioP2;P2;SDS_P1;SDS_P2;PMS_P1;PMS_P2;Temp;Humidity;BMP_temperature;BMP_pressure;BME280_temperature;BME280_humidity;BME280_pressure;Samples;Min_cycle;Max_cycle;Signal;HPM_P1;HPM_P2
2021/12/26 00:00:09;;;;;;;1.70;0.30;;;-6.20;99.90;;;;;;4952239;28;20048;-77
2021/12/26 00:02:34;;;;;;;5.20;0.40;;;-6.20;99.90;;;;;;4952101;28;20493;-77
2021/12/26 00:05:00;;;;;;;7.10;0.57;;;-6.20;99.90;;;;;;4952482;28;20050;-77
2021/12/26 00:07:26;;;;;;;2.70;0.60;;;-6.10;99.90;;;;;;4952081;28;20046;-77
2021/12/26 00:09:51;;;;;;;1.93;0.30;;;-6.10;99.90;;;;;;4952239;29;20062;-77
2021/12/26 00:12:17;;;;;;;2.27;0.20;;;-6.00;99.90;;;;;;4951736;28;20035;-77
2021/12/26 00:14:42;;;;;;;0.67;0.20;;;-6.00;99.90;;;;;;4952482;29;20428;-77
2021/12/26 00:17:08;;;;;;;1.13;0.27;;;-5.90;99.90;;;;;;4952108;29;20492;-77
2021/12/26 00:19:33;;;;;;;1.43;0.20;;;-5.90;99.90;;;;;;4936080;29;20122;-78
2021/12/26 00:21:59;;;;;;;1.67;0.50;;;-5.90;99.90;;;;;;4951917;28;20086;-78
2021/12/26 00:24:25;;;;;;;3.33;0.40;;;-5.90;99.90;;;;;;4936139;29;20408;-78
2021/12/26 00:26:50;;;;;;;1.50;0.20;;;-5.80;99.90;;;;;;4951952;28;20039;-78
2021/12/26 00:29:16;;;;;;;1.53;0.30;;;-5.80;99.90;;;;;;4936234;29;20039;-78
2021/12/26 00:31:42;;;;;;;2.47;0.20;;;-5.80;99.90;;;;;;4936775;29;20451;-78
2021/12/26 00:34:07;;;;;;;1.73;0.50;;;-5.80;99.90;;;;;;4936451;29;20102;-78
2021/12/26 00:36:33;;;;;;;2.10;0.60;;;-5.80;99.90;;;;;;4951750;29;20058;-78
2021/12/26 00:38:58;;;;;;;3.07;1.30;;;-5.80;99.90;;;;;;4951991;29;20078;-78
2021/12/26 00:41:24;;;;;;;1.47;0.73;;;-5.90;99.90;;;;;;4951948;29;20043;-78
2021/12/26 00:43:50;;;;;;;3.47;0.40;;;-5.90;99.90;;;;;;4951930;28;20038;-78
2021/12/26 00:46:15;;;;;;;2.57;0.50;;;-6.00;99.90;;;;;;4951523;28;20047;-78
2021/12/26 00:48:41;;;;;;;3.60;0.53;;;-6.10;99.90;;;;;;4951930;29;20492;-78
2021/12/26 00:51:06;;;;;;;1.90;0.63;;;-6.10;99.90;;;;;;4952085;28;20070;-78
2021/12/26 00:53:33;;;;;;;2.37;0.63;;;-6.20;99.90;;;;;;4936055;29;20145;-77
2021/12/26 00:55:59;;;;;;;4.20;0.73;;;-6.30;99.90;;;;;;4952061;29;20472;-78
2021/12/26 00:58:25;;;;;;;2.03;0.83;;;-6.30;99.90;;;;;;4952076;29;20047;-78
2021/12/26 01:00:52;;;;;;;3.50;0.60;;;-6.30;99.90;;;;;;4951901;28;20444;-78
2021/12/26 01:03:18;;;;;;;1.37;0.40;;;-6.30;99.90;;;;;;4951897;28;20084;-78
2021/12/26 01:05:49;;;;;;;2.43;0.50;;;-6.40;99.90;;;;;;4951035;28;20031;-78
2021/12/26 01:08:17;;;;;;;1.97;0.30;;;-6.40;99.90;;;;;;4951791;29;20047;-78
2021/12/26 01:11:00;;;;;;;2.60;0.80;;;-6.40;99.90;;;;;;4951998;29;20464;-77
2021/12/26 01:13:37;;;;;;;2.30;0.30;;;-6.40;99.90;;;;;;4953198;28;20046;-77
2021/12/26 01:16:06;;;;;;;2.10;0.57;;;-6.40;99.90;;;;;;4955414;28;20043;-78
2021/12/26 01:18:36;;;;;;;0.70;0.20;;;-6.50;99.90;;;;;;4955840;28;20476;-77
2021/12/26 01:21:16;;;;;;;2.43;0.40;;;-6.50;99.90;;;;;;4955371;28;20039;-77
2021/12/26 01:23:43;;;;;;;2.10;0.40;;;-6.50;99.90;;;;;;4955432;28;20455;-77
2021/12/26 01:26:09;;;;;;;1.93;0.33;;;-6.50;99.90;;;;;;4955130;29;20451;-77
2021/12/26 01:28:34;;;;;;;1.27;0.50;;;-6.50;99.90;;;;;;4939354;29;20043;-77
2021/12/26 01:31:01;;;;;;;1.60;0.30;;;-6.50;99.90;;;;;;4955095;28;20039;-77
2021/12/26 01:33:27;;;;;;;1.03;0.53;;;-6.50;99.90;;;;;;4955025;28;20043;-77
2021/12/26 01:35:54;;;;;;;2.63;0.43;;;-6.50;99.90;;;;;;4955029;29;20581;-77
2021/12/26 01:38:20;;;;;;;1.87;0.30;;;-6.40;99.90;;;;;;4955162;28;20039;-77
2021/12/26 01:40:53;;;;;;;0.90;0.40;;;-6.50;99.90;;;;;;4954788;28;20031;-77
2021/12/26 01:43:24;;;;;;;1.73;0.50;;;-6.50;99.90;;;;;;4939390;29;20035;-77
2021/12/26 01:45:50;;;;;;;1.67;0.30;;;-6.50;99.90;;;;;;4954638;28;20039;-78
2021/12/26 01:48:16;;;;;;;1.70;0.30;;;-6.50;99.90;;;;;;4955236;28;20035;-78
2021/12/26 01:50:43;;;;;;;1.73;0.40;;;-6.40;99.90;;;;;;4954762;28;20071;-77
2021/12/26 01:53:10;;;;;;;2.57;0.40;;;-6.40;99.90;;;;;;4954865;29;20036;-77
2021/12/26 01:55:39;;;;;;;2.63;0.30;;;-6.40;99.90;;;;;;4954297;28;20043;-77
2021/12/26 01:58:08;;;;;;;1.50;0.40;;;-6.40;99.90;;;;;;4954729;29;20035;-77
2021/12/26 02:00:35;;;;;;;1.50;0.63;;;-6.30;99.90;;;;;;4954849;28;20039;-78
2021/12/26 02:03:01;;;;;;;0.90;0.27;;;-6.30;99.90;;;;;;4954879;29;20476;-78
2021/12/26 02:05:26;;;;;;;2.47;0.67;;;-6.20;99.90;;;;;;4939054;29;20035;-77
2021/12/26 02:07:52;;;;;;;1.03;0.23;;;-6.20;99.90;;;;;;4954304;28;20043;-77
2021/12/26 02:10:18;;;;;;;1.87;0.20;;;-6.20;99.90;;;;;;4954010;28;20058;-77
2021/12/26 02:12:44;;;;;;;0.93;0.20;;;-6.10;99.90;;;;;;4954560;28;20175;-77
2021/12/26 02:15:10;;;;;;;3.60;0.40;;;-6.10;99.90;;;;;;4955132;29;20491;-77
2021/12/26 02:17:36;;;;;;;1.00;0.20;;;-6.10;99.90;;;;;;4954803;29;20407;-78
2021/12/26 02:20:49;;;;;;;1.77;0.40;;;-6.00;99.90;;;;;;4955231;28;20041;-77
2021/12/26 02:23:43;;;;;;;0.73;0.20;;;-6.00;99.90;;;;;;4955218;29;20043;-77
2021/12/26 02:28:38;;;;;;;1.67;0.27;;;-6.00;99.90;;;;;;4954886;28;20408;-77
2021/12/26 02:31:05;;;;;;;2.20;0.43;;;-6.00;99.90;;;;;;4955263;28;20043;-79
2021/12/26 02:33:30;;;;;;;0.97;0.23;;;-6.10;99.90;;;;;;4938694;29;20519;-78
2021/12/26 02:35:56;;;;;;;2.60;0.20;;;-6.10;99.90;;;;;;4938452;29;20039;-79
2021/12/26 02:38:22;;;;;;;2.67;0.30;;;-6.10;99.90;;;;;;4938924;29;20539;-78
2021/12/26 02:40:50;;;;;;;1.43;0.27;;;-6.10;99.90;;;;;;4955163;28;20110;-79
2021/12/26 02:43:21;;;;;;;1.53;0.77;;;-6.10;99.90;;;;;;4955854;28;20054;-79
2021/12/26 02:45:47;;;;;;;3.00;0.30;;;-6.10;99.90;;;;;;4938681;29;20099;-79
2021/12/26 02:48:13;;;;;;;2.60;0.20;;;-6.20;99.90;;;;;;4955036;29;20138;-79
2021/12/26 02:50:41;;;;;;;1.07;0.30;;;-6.10;99.90;;;;;;4955375;28;20043;-79
2021/12/26 02:53:09;;;;;;;2.20;0.20;;;-6.20;99.90;;;;;;4955362;29;20050;-79
2021/12/26 02:55:34;;;;;;;1.27;0.20;;;-6.20;99.90;;;;;;4957057;29;20051;-79
2021/12/26 02:58:08;;;;;;;1.13;0.43;;;-6.20;99.90;;;;;;4974895;29;20185;-80
2021/12/26 03:00:38;;;;;;;1.03;0.73;;;-6.20;99.90;;;;;;4979189;29;20039;-79
2021/12/26 03:03:05;;;;;;;1.23;0.30;;;-6.20;99.90;;;;;;4963239;29;20031;-80
2021/12/26 03:05:36;;;;;;;1.17;0.27;;;-6.30;99.90;;;;;;4978508;28;20031;-79
2021/12/26 03:08:03;;;;;;;3.20;0.60;;;-6.30;99.90;;;;;;4977880;29;20039;-79
2021/12/26 03:10:29;;;;;;;2.50;0.30;;;-6.30;99.90;;;;;;4972753;28;20042;-79
2021/12/26 03:12:58;;;;;;;1.17;0.27;;;-6.30;99.90;;;;;;4969748;28;20099;-79
2021/12/26 03:15:25;;;;;;;2.37;0.43;;;-6.30;99.90;;;;;;4969429;28;20043;-79
2021/12/26 03:17:52;;;;;;;1.27;0.30;;;-6.40;99.90;;;;;;4966180;29;20050;-79
2021/12/26 03:20:21;;;;;;;0.70;0.30;;;-6.40;99.90;;;;;;4966875;28;20058;-79
2021/12/26 03:22:47;;;;;;;2.33;0.37;;;-6.40;99.90;;;;;;4967074;28;20036;-79
2021/12/26 03:25:18;;;;;;;1.47;0.30;;;-6.40;99.90;;;;;;4959427;29;20051;-79
2021/12/26 03:27:44;;;;;;;6.47;1.23;;;-6.30;99.90;;;;;;4956026;29;20047;-79
2021/12/26 03:30:12;;;;;;;0.70;0.20;;;-6.30;99.90;;;;;;4956318;28;20050;-79
2021/12/26 03:32:39;;;;;;;1.10;0.70;;;-6.30;99.90;;;;;;4956029;29;20440;-79
2021/12/26 03:35:05;;;;;;;2.17;0.67;;;-6.30;99.90;;;;;;4940652;28;20122;-79
2021/12/26 03:37:31;;;;;;;1.80;0.30;;;-6.40;99.90;;;;;;4935569;29;20040;-79
2021/12/26 03:39:56;;;;;;;0.60;0.20;;;-6.40;99.90;;;;;;4936913;29;20051;-79
2021/12/26 03:42:23;;;;;;;1.37;0.83;;;-6.40;99.90;;;;;;4945151;28;20134;-79
2021/12/26 03:44:50;;;;;;;1.10;0.70;;;-6.50;99.90;;;;;;4955397;29;20039;-79
2021/12/26 03:47:15;;;;;;;1.60;0.50;;;-6.50;99.90;;;;;;4954857;29;20035;-79
2021/12/26 03:49:42;;;;;;;1.53;0.30;;;-6.50;99.90;;;;;;4939148;29;20403;-79
2021/12/26 03:52:08;;;;;;;2.20;0.40;;;-6.50;99.90;;;;;;4954844;28;20527;-79
2021/12/26 03:54:34;;;;;;;3.30;0.57;;;-6.50;99.90;;;;;;4939985;29;20062;-79
2021/12/26 03:57:00;;;;;;;1.77;0.30;;;-6.50;99.90;;;;;;4954399;29;20449;-79
2021/12/26 03:59:27;;;;;;;1.97;0.70;;;-6.50;99.90;;;;;;4955571;28;20381;-79
2021/12/26 04:01:54;;;;;;;1.87;0.30;;;-6.50;99.90;;;;;;4954942;28;20047;-79
2021/12/26 04:04:20;;;;;;;1.40;0.20;;;-6.50;99.90;;;;;;4953963;29;20039;-79
2021/12/26 04:06:45;;;;;;;3.30;0.23;;;-6.50;99.90;;;;;;4954236;28;20043;-79
2021/12/26 04:09:11;;;;;;;1.20;0.30;;;-6.50;99.90;;;;;;4954055;28;20047;-79
2021/12/26 04:11:41;;;;;;;1.77;0.37;;;-6.50;99.90;;;;;;4953456;28;20460;-79
2021/12/26 04:14:07;;;;;;;1.20;0.20;;;-6.50;99.90;;;;;;4953171;28;20050;-79
2021/12/26 04:16:32;;;;;;;1.90;0.20;;;-6.60;99.90;;;;;;4953314;29;20521;-79
2021/12/26 04:18:58;;;;;;;3.07;0.40;;;-6.60;99.90;;;;;;4953255;28;20091;-79
2021/12/26 04:21:23;;;;;;;2.43;1.60;;;-6.70;99.90;;;;;;4953048;28;20047;-79
2021/12/26 04:23:49;;;;;;;2.93;0.53;;;-6.70;99.90;;;;;;4953662;28;20043;-79
2021/12/26 04:26:14;;;;;;;1.47;0.43;;;-6.70;99.90;;;;;;4953707;28;20047;-78
2021/12/26 04:28:40;;;;;;;2.83;0.97;;;-6.70;99.90;;;;;;4953107;28;20055;-79
2021/12/26 04:31:06;;;;;;;2.37;0.40;;;-6.80;99.90;;;;;;4952870;28;20047;-79
2021/12/26 04:33:31;;;;;;;9.27;1.60;;;-6.80;99.90;;;;;;4952986;28;20401;-79
2021/12/26 04:35:57;;;;;;;3.27;0.83;;;-6.80;99.90;;;;;;4953142;28;20070;-79
2021/12/26 04:38:23;;;;;;;1.53;0.43;;;-6.80;99.90;;;;;;4953309;29;20492;-79
2021/12/26 04:40:51;;;;;;;5.27;0.77;;;-6.80;99.90;;;;;;4952744;28;20062;-78
2021/12/26 04:43:19;;;;;;;1.17;0.47;;;-6.80;99.90;;;;;;4937021;29;20035;-79
2021/12/26 04:45:45;;;;;;;2.40;0.53;;;-6.80;99.90;;;;;;4952691;28;20130;-79
2021/12/26 04:48:11;;;;;;;3.33;0.50;;;-6.80;99.90;;;;;;4953020;29;20123;-79
2021/12/26 04:50:37;;;;;;;2.70;0.40;;;-6.80;99.90;;;;;;4952929;29;20078;-79
2021/12/26 04:53:03;;;;;;;1.87;0.40;;;-6.80;99.90;;;;;;4952900;29;20050;-79
2021/12/26 04:55:28;;;;;;;1.83;0.40;;;-6.80;99.90;;;;;;4952483;28;20051;-79
2021/12/26 04:57:55;;;;;;;1.93;0.30;;;-6.80;99.90;;;;;;4936905;29;20046;-79
2021/12/26 05:00:26;;;;;;;3.47;0.93;;;-6.80;99.90;;;;;;4952421;28;20506;-79
2021/12/26 05:02:52;;;;;;;1.40;0.43;;;-6.90;99.90;;;;;;4952635;28;20062;-78
2021/12/26 05:05:18;;;;;;;3.63;0.33;;;-6.90;99.90;;;;;;4952708;29;20039;-79
2021/12/26 05:07:44;;;;;;;0.97;0.40;;;-6.80;99.90;;;;;;4952464;29;20054;-79
2021/12/26 05:10:13;;;;;;;1.50;0.37;;;-6.90;99.90;;;;;;4952522;29;20043;-79
2021/12/26 05:12:40;;;;;;;2.93;0.30;;;-6.90;99.90;;;;;;4952809;29;20047;-79
2021/12/26 05:15:07;;;;;;;1.77;0.43;;;-6.90;99.90;;;;;;4953131;28;20097;-79
2021/12/26 05:17:33;;;;;;;3.30;0.80;;;-6.90;99.90;;;;;;4953229;29;20103;-79
2021/12/26 05:19:58;;;;;;;2.10;0.73;;;-6.90;99.90;;;;;;4954555;28;20078;-79
2021/12/26 05:22:24;;;;;;;2.03;0.83;;;-6.90;99.90;;;;;;4953836;28;20141;-79
2021/12/26 05:24:50;;;;;;;3.10;0.80;;;-6.90;99.90;;;;;;4956136;28;20520;-79
2021/12/26 05:27:16;;;;;;;1.90;0.60;;;-6.80;99.90;;;;;;4957005;28;20054;-79
2021/12/26 05:29:42;;;;;;;2.90;0.73;;;-6.80;99.90;;;;;;4937798;29;20049;-79
2021/12/26 05:32:07;;;;;;;2.83;0.67;;;-6.80;99.90;;;;;;4953234;28;20556;-79
2021/12/26 05:34:33;;;;;;;2.73;0.80;;;-6.70;99.90;;;;;;4937423;29;20047;-79
2021/12/26 05:36:59;;;;;;;4.60;1.60;;;-6.70;99.90;;;;;;4953601;28;20057;-79
2021/12/26 05:39:24;;;;;;;5.13;0.70;;;-6.70;99.90;;;;;;4954221;28;20039;-79
2021/12/26 05:41:50;;;;;;;2.70;0.50;;;-6.70;99.90;;;;;;4953610;28;20439;-79
2021/12/26 05:44:16;;;;;;;3.67;0.50;;;-6.70;99.90;;;;;;4954399;29;20042;-79
2021/12/26 05:46:42;;;;;;;2.27;0.80;;;-6.70;99.90;;;;;;4952882;28;20103;-79
2021/12/26 05:49:07;;;;;;;1.87;0.60;;;-6.70;99.90;;;;;;4953249;28;20046;-78
2021/12/26 05:51:34;;;;;;;2.13;1.10;;;-6.70;99.90;;;;;;4953308;28;20043;-79
2021/12/26 05:53:59;;;;;;;2.53;0.70;;;-6.70;99.90;;;;;;4952805;28;20583;-79
2021/12/26 05:56:26;;;;;;;3.67;1.37;;;-6.70;99.90;;;;;;4951882;28;20183;-79
2021/12/26 05:58:51;;;;;;;4.90;1.03;;;-6.70;99.90;;;;;;4937323;29;20162;-79
2021/12/26 06:01:17;;;;;;;3.33;1.20;;;-6.70;99.90;;;;;;4955578;28;20090;-79
2021/12/26 06:03:42;;;;;;;4.07;1.17;;;-6.70;99.90;;;;;;4955980;28;20413;-79
2021/12/26 06:06:08;;;;;;;5.23;1.20;;;-6.70;99.90;;;;;;4955481;28;20066;-79
2021/12/26 06:08:34;;;;;;;3.97;0.90;;;-6.70;99.90;;;;;;4955975;28;20118;-79
2021/12/26 06:11:00;;;;;;;4.03;1.90;;;-6.80;99.90;;;;;;4955505;28;20043;-79
2021/12/26 06:13:25;;;;;;;2.73;1.10;;;-6.70;99.90;;;;;;4955241;28;20415;-78
2021/12/26 06:15:51;;;;;;;3.30;1.00;;;-6.80;99.90;;;;;;4955510;29;20416;-79
2021/12/26 06:18:17;;;;;;;3.50;0.70;;;-6.80;99.90;;;;;;4955286;28;20381;-81
2021/12/26 06:20:42;;;;;;;3.87;1.47;;;-6.80;99.90;;;;;;4955605;28;20050;-79
2021/12/26 06:23:09;;;;;;;2.10;0.73;;;-6.70;99.90;;;;;;4939480;29;20040;-79
2021/12/26 06:25:34;;;;;;;2.83;0.80;;;-6.70;99.90;;;;;;4955121;28;20039;-79
2021/12/26 06:28:01;;;;;;;4.47;1.30;;;-6.70;99.90;;;;;;4954822;28;20135;-79
2021/12/26 06:30:27;;;;;;;3.33;1.20;;;-6.70;99.90;;;;;;4954413;28;20232;-79
2021/12/26 06:32:53;;;;;;;5.47;0.90;;;-6.70;99.90;;;;;;4955158;29;20043;-79
2021/12/26 06:35:19;;;;;;;3.90;1.37;;;-6.70;99.90;;;;;;4955087;29;20043;-79
2021/12/26 06:37:44;;;;;;;2.70;1.43;;;-6.70;99.90;;;;;;4954941;29;20412;-79
2021/12/26 06:40:11;;;;;;;2.73;1.17;;;-6.70;99.90;;;;;;4955229;28;20101;-79
2021/12/26 06:42:42;;;;;;;3.33;1.23;;;-6.70;99.90;;;;;;4955016;29;20035;-79
2021/12/26 06:45:15;;;;;;;2.50;1.50;;;-6.60;99.90;;;;;;4954400;29;20509;-79
2021/12/26 06:47:42;;;;;;;2.73;1.37;;;-6.70;99.90;;;;;;4938437;29;20050;-79
2021/12/26 06:50:08;;;;;;;3.97;1.63;;;-6.60;99.90;;;;;;4954878;29;20185;-79
2021/12/26 06:52:34;;;;;;;2.93;1.20;;;-6.60;99.90;;;;;;4954959;28;20043;-79
2021/12/26 06:55:00;;;;;;;5.23;1.47;;;-6.70;99.90;;;;;;4954744;28;20049;-79
2021/12/26 06:57:27;;;;;;;3.40;1.30;;;-6.70;99.90;;;;;;4938325;29;20126;-79
2021/12/26 06:59:53;;;;;;;5.83;1.50;;;-6.80;99.90;;;;;;4955186;29;20047;-79
2021/12/26 07:02:18;;;;;;;6.70;2.03;;;-6.80;99.90;;;;;;4954865;28;20138;-79
2021/12/26 07:04:44;;;;;;;4.70;1.83;;;-6.80;99.90;;;;;;4954648;29;20476;-79
2021/12/26 07:07:09;;;;;;;3.20;1.00;;;-6.70;99.90;;;;;;4954825;28;20512;-79
2021/12/26 07:09:35;;;;;;;4.33;2.20;;;-6.80;99.90;;;;;;4954836;29;20053;-79
2021/12/26 07:12:01;;;;;;;3.33;1.43;;;-6.70;99.90;;;;;;4937114;29;20126;-79
2021/12/26 07:14:26;;;;;;;4.00;1.30;;;-6.70;99.90;;;;;;4954960;29;20043;-79
2021/12/26 07:16:52;;;;;;;3.90;1.40;;;-6.60;99.90;;;;;;4953942;28;20039;-79
2021/12/26 07:19:17;;;;;;;4.80;1.70;;;-6.60;99.90;;;;;;4954072;28;20038;-79
2021/12/26 07:21:43;;;;;;;4.10;1.10;;;-6.60;99.90;;;;;;4938554;29;20044;-79
2021/12/26 07:24:09;;;;;;;3.70;1.43;;;-6.60;99.90;;;;;;4954396;28;20066;-79
2021/12/26 07:26:35;;;;;;;4.70;1.60;;;-6.60;99.90;;;;;;4954098;28;20070;-79
2021/12/26 07:29:00;;;;;;;3.40;1.43;;;-6.60;99.90;;;;;;4954002;28;20524;-79
2021/12/26 07:31:26;;;;;;;3.97;1.40;;;-6.60;99.90;;;;;;4937770;29;20047;-79
2021/12/26 07:33:52;;;;;;;2.27;1.20;;;-6.70;99.90;;;;;;4953783;28;20054;-79
2021/12/26 07:36:17;;;;;;;4.53;1.50;;;-6.70;99.90;;;;;;4953613;29;20047;-79
2021/12/26 07:38:43;;;;;;;4.33;1.33;;;-6.70;99.90;;;;;;4939040;29;20376;-79
2021/12/26 07:41:09;;;;;;;5.53;1.80;;;-6.70;99.90;;;;;;4953799;29;20515;-79
2021/12/26 07:43:34;;;;;;;3.37;1.37;;;-6.70;99.90;;;;;;4953990;28;20468;-79
2021/12/26 07:46:00;;;;;;;4.23;2.10;;;-6.70;99.90;;;;;;4953000;29;20047;-79
2021/12/26 07:48:26;;;;;;;5.03;1.87;;;-6.70;99.90;;;;;;4953974;29;20050;-79
2021/12/26 07:50:51;;;;;;;3.73;2.10;;;-6.70;99.90;;;;;;4954433;28;20107;-79
2021/12/26 07:53:17;;;;;;;5.30;1.77;;;-6.70;99.90;;;;;;4954065;28;20515;-79
2021/12/26 07:55:42;;;;;;;5.43;1.77;;;-6.70;99.90;;;;;;4953307;29;20460;-79
2021/12/26 07:58:08;;;;;;;6.07;1.67;;;-6.60;99.90;;;;;;4953749;28;20102;-79
2021/12/26 08:00:34;;;;;;;2.33;1.30;;;-6.60;99.90;;;;;;4953612;28;20039;-79
2021/12/26 08:03:00;;;;;;;3.50;1.27;;;-6.60;99.90;;;;;;4952731;28;20035;-79
2021/12/26 08:05:26;;;;;;;4.47;2.60;;;-6.50;99.90;;;;;;4953370;28;20035;-79
2021/12/26 08:07:52;;;;;;;4.00;2.37;;;-6.50;99.90;;;;;;4953544;29;20090;-79
2021/12/26 08:10:18;;;;;;;14.93;2.00;;;-6.50;99.90;;;;;;4953641;28;20114;-79
2021/12/26 08:12:43;;;;;;;3.73;1.63;;;-6.50;99.90;;;;;;4953365;29;20047;-79
2021/12/26 08:15:09;;;;;;;4.97;2.83;;;-6.50;99.90;;;;;;4953381;29;20465;-79
2021/12/26 08:17:38;;;;;;;4.10;1.43;;;-6.40;99.90;;;;;;4952819;29;20043;-79
2021/12/26 08:20:05;;;;;;;3.57;1.43;;;-6.40;99.90;;;;;;4952845;28;20042;-79
2021/12/26 08:22:31;;;;;;;3.53;1.30;;;-6.40;99.90;;;;;;4952233;28;20039;-79
2021/12/26 08:24:57;;;;;;;3.57;1.53;;;-6.40;99.90;;;;;;4953252;28;20039;-79
2021/12/26 08:27:23;;;;;;;4.27;2.07;;;-6.30;99.90;;;;;;4953487;28;20039;-79
2021/12/26 08:29:48;;;;;;;3.57;1.57;;;-6.30;99.90;;;;;;4954080;29;20036;-79
2021/12/26 08:32:16;;;;;;;3.90;1.63;;;-6.20;99.90;;;;;;4938476;29;20039;-79
2021/12/26 08:34:43;;;;;;;5.07;2.33;;;-6.10;99.90;;;;;;4967537;28;20023;-79
2021/12/26 08:37:09;;;;;;;4.90;2.37;;;-6.10;99.90;;;;;;4977447;28;20074;-80
2021/12/26 08:39:38;;;;;;;6.17;2.17;;;-6.00;99.90;;;;;;4961411;28;20054;-80
2021/12/26 08:42:05;;;;;;;3.30;1.90;;;-5.90;99.90;;;;;;4976586;28;20031;-79
2021/12/26 08:44:32;;;;;;;4.40;2.30;;;-5.90;99.90;;;;;;4976613;28;20035;-78
2021/12/26 08:46:57;;;;;;;4.00;1.87;;;-5.80;99.90;;;;;;4977101;28;20058;-79
2021/12/26 08:49:23;;;;;;;2.83;1.70;;;-5.70;99.90;;;;;;4976803;28;20027;-78
2021/12/26 08:51:49;;;;;;;4.53;1.63;;;-5.60;99.90;;;;;;4968623;28;20039;-78
2021/12/26 08:54:15;;;;;;;6.50;2.20;;;-5.60;99.90;;;;;;4940755;29;20488;-79
2021/12/26 08:56:41;;;;;;;3.53;1.83;;;-5.50;99.90;;;;;;4939114;29;20049;-78
2021/12/26 08:59:07;;;;;;;5.43;2.17;;;-5.50;99.90;;;;;;4954380;29;20408;-79
2021/12/26 09:01:34;;;;;;;4.20;1.67;;;-5.50;99.90;;;;;;4955053;28;20059;-79
2021/12/26 09:03:59;;;;;;;6.20;3.57;;;-5.40;99.90;;;;;;4954591;29;20031;-78
2021/12/26 09:06:25;;;;;;;3.63;1.47;;;-5.30;99.90;;;;;;4954164;29;20053;-78
2021/12/26 09:08:51;;;;;;;3.67;1.03;;;-5.30;99.90;;;;;;4953845;28;20047;-78
2021/12/26 09:11:17;;;;;;;4.47;1.60;;;-5.30;99.90;;;;;;4919200;29;20079;-79
2021/12/26 09:13:43;;;;;;;4.63;1.60;;;-5.20;99.90;;;;;;4950856;28;20047;-79
2021/12/26 09:16:09;;;;;;;4.23;2.73;;;-5.10;99.90;;;;;;4950324;29;20574;-79
2021/12/26 09:18:35;;;;;;;3.63;1.83;;;-5.10;99.90;;;;;;4945847;29;20043;-79
2021/12/26 09:21:00;;;;;;;2.83;1.43;;;-5.00;99.90;;;;;;4953498;28;20043;-79
2021/12/26 09:23:26;;;;;;;3.07;1.20;;;-5.00;99.90;;;;;;4937834;28;20039;-79
2021/12/26 09:25:52;;;;;;;4.50;2.40;;;-4.90;99.90;;;;;;4953639;28;20049;-79
2021/12/26 09:28:17;;;;;;;4.70;1.90;;;-4.90;99.90;;;;;;4937574;29;20046;-79
2021/12/26 09:30:43;;;;;;;3.93;2.53;;;-4.80;99.90;;;;;;4953756;28;20082;-78
2021/12/26 09:33:08;;;;;;;4.13;2.37;;;-4.70;99.90;;;;;;4954831;28;20036;-78
2021/12/26 09:35:34;;;;;;;6.93;2.43;;;-4.70;99.90;;;;;;4956167;29;20051;-79
2021/12/26 09:38:00;;;;;;;2.53;1.37;;;-4.60;99.90;;;;;;4956341;29;20051;-79
2021/12/26 09:40:26;;;;;;;2.53;1.70;;;-4.50;99.90;;;;;;4940427;29;20047;-79
2021/12/26 09:42:52;;;;;;;12.10;5.93;;;-4.50;99.90;;;;;;4956939;29;20054;-79
2021/12/26 09:45:18;;;;;;;9.07;4.57;;;-4.40;99.90;;;;;;4940806;29;20143;-79
2021/12/26 09:47:45;;;;;;;6.33;3.77;;;-4.40;99.90;;;;;;4956161;29;20110;-78
2021/12/26 09:50:12;;;;;;;5.20;2.37;;;-4.30;99.90;;;;;;4956214;28;20090;-79
2021/12/26 09:52:44;;;;;;;4.73;2.47;;;-4.30;99.90;;;;;;4942954;29;20047;-80
2021/12/26 09:55:11;;;;;;;3.80;1.50;;;-4.20;99.90;;;;;;4961082;29;20039;-78
2021/12/26 09:57:36;;;;;;;5.90;2.23;;;-4.10;99.90;;;;;;4955980;28;20131;-78
2021/12/26 10:00:22;;;;;;;5.60;2.50;;;-4.00;99.90;;;;;;4955714;28;20098;-79
2021/12/26 10:03:23;;;;;;;5.15;2.05;;;-4.00;99.90;;;;;;4956515;29;20101;-78
2021/12/26 10:06:02;;;;;;;3.97;1.83;;;-3.90;99.90;;;;;;4956473;29;20075;-79
2021/12/26 10:08:30;;;;;;;3.47;2.20;;;-3.70;99.90;;;;;;4956214;29;20492;-79
2021/12/26 10:11:15;;;;;;;7.13;2.27;;;-3.70;99.90;;;;;;4955530;28;20090;-79
2021/12/26 10:13:43;;;;;;;4.30;2.20;;;-3.60;99.90;;;;;;4939473;29;20062;-79
2021/12/26 10:16:09;;;;;;;6.77;2.83;;;-3.50;99.90;;;;;;4955429;29;20051;-79
2021/12/26 10:18:39;;;;;;;4.50;2.27;;;-3.40;99.90;;;;;;4939387;29;20039;-79
2021/12/26 10:21:25;;;;;;;4.50;2.43;;;-3.40;99.90;;;;;;4939051;29;20389;-79
2021/12/26 10:23:52;;;;;;;3.67;1.70;;;-3.30;99.90;;;;;;4957070;29;20039;-80
2021/12/26 10:26:23;;;;;;;3.10;1.57;;;-3.20;99.90;;;;;;4954570;29;20681;-79
2021/12/26 10:29:16;;;;;;;3.93;1.10;;;-3.00;99.90;;;;;;4954388;28;20047;-79
2021/12/26 10:31:48;;;;;;;3.30;1.50;;;-2.80;99.90;;;;;;4955072;28;20045;-79
2021/12/26 10:34:21;;;;;;;4.20;1.20;;;-2.50;99.90;;;;;;4942784;29;20080;-79
2021/12/26 10:36:49;;;;;;;3.33;1.50;;;-2.20;99.90;;;;;;4937275;29;20047;-79
2021/12/26 10:39:18;;;;;;;3.67;1.37;;;-2.00;99.90;;;;;;4954267;29;20042;-79
2021/12/26 10:41:47;;;;;;;4.03;2.03;;;-1.80;99.90;;;;;;4957146;29;20039;-80
2021/12/26 10:44:22;;;;;;;2.27;0.90;;;-1.70;99.90;;;;;;4957043;29;20078;-79
2021/12/26 10:46:50;;;;;;;4.10;1.70;;;-1.60;99.60;;;;;;4956169;29;20061;-79
2021/12/26 10:49:28;;;;;;;2.83;1.23;;;-1.50;99.90;;;;;;4956905;28;20107;-79
2021/12/26 10:51:54;;;;;;;3.13;2.00;;;-1.40;99.90;;;;;;4937826;29;20051;-79
2021/12/26 10:54:25;;;;;;;6.00;1.30;;;-1.40;99.90;;;;;;4951840;29;20470;-79
2021/12/26 10:57:13;;;;;;;3.57;1.50;;;-1.30;99.90;;;;;;4955404;29;20039;-79
2021/12/26 10:59:43;;;;;;;4.07;1.40;;;-1.20;97.20;;;;;;4956243;29;20101;-79
2021/12/26 11:02:10;;;;;;;2.47;1.50;;;-1.10;99.90;;;;;;4955918;28;20627;-79
2021/12/26 11:04:37;;;;;;;3.50;1.40;;;-1.00;99.90;;;;;;4955502;29;20066;-80
2021/12/26 11:07:11;;;;;;;5.30;2.27;;;-0.90;99.90;;;;;;4955794;29;20518;-80
2021/12/26 11:09:36;;;;;;;3.43;2.20;;;-0.80;99.60;;;;;;4954819;29;20039;-80
2021/12/26 11:12:07;;;;;;;4.80;1.70;;;-0.80;99.90;;;;;;4955913;29;20102;-79
2021/12/26 11:14:53;;;;;;;3.07;1.40;;;-0.70;99.80;;;;;;4955259;29;20051;-80
2021/12/26 11:17:34;;;;;;;2.60;1.40;;;-0.70;98.70;;;;;;4955159;28;20061;-79
2021/12/26 11:20:00;;;;;;;5.20;2.10;;;-0.60;95.80;;;;;;4938617;28;20094;-81
2021/12/26 11:22:27;;;;;;;3.93;1.77;;;-0.70;97.70;;;;;;4956179;29;20071;-79
2021/12/26 11:24:53;;;;;;;3.70;1.43;;;-0.80;95.80;;;;;;4938910;29;20502;-80
2021/12/26 11:27:20;;;;;;;4.93;2.10;;;-0.90;96.40;;;;;;4954434;28;20043;-79
2021/12/26 11:29:48;;;;;;;4.03;1.47;;;-0.90;97.80;;;;;;4954862;29;20039;-79
2021/12/26 11:32:16;;;;;;;3.07;1.80;;;-0.90;96.70;;;;;;4954651;28;20159;-80
2021/12/26 11:34:47;;;;;;;3.17;1.00;;;-0.80;97.10;;;;;;4954833;29;20146;-79
2021/12/26 11:37:14;;;;;;;3.57;1.83;;;-0.80;94.10;;;;;;4954599;29;20083;-79
2021/12/26 11:39:42;;;;;;;3.60;1.37;;;-0.70;95.00;;;;;;4942248;29;20035;-80
2021/12/26 11:42:52;;;;;;;5.73;2.17;;;-0.70;93.70;;;;;;4957572;29;20045;-80
2021/12/26 11:45:34;;;;;;;4.50;1.97;;;-0.50;91.20;;;;;;4937799;29;20039;-78
2021/12/26 11:48:58;;;;;;;4.00;2.03;;;-0.40;93.60;;;;;;4953377;28;20075;-77
2021/12/26 11:51:40;;;;;;;3.17;1.87;;;-0.30;91.00;;;;;;4931235;29;20086;-78
2021/12/26 11:54:19;;;;;;;7.17;2.47;;;-0.20;91.40;;;;;;4954621;29;20054;-78
2021/12/26 11:56:53;;;;;;;3.10;1.40;;;-0.20;88.60;;;;;;4953244;28;20419;-79
2021/12/26 11:59:47;;;;;;;3.70;1.83;;;-0.10;92.90;;;;;;4953728;29;20089;-79
2021/12/26 12:02:32;;;;;;;4.60;1.70;;;0.10;87.40;;;;;;4953812;28;20126;-79
2021/12/26 12:05:20;;;;;;;3.93;1.47;;;0.30;92.40;;;;;;4937669;29;20080;-79
2021/12/26 12:07:54;;;;;;;2.33;1.33;;;0.50;87.60;;;;;;4955411;29;20051;-81
2021/12/26 12:10:56;;;;;;;4.03;2.07;;;0.50;91.20;;;;;;4960161;28;20059;-80
2021/12/26 12:13:21;;;;;;;5.33;1.63;;;0.60;88.60;;;;;;4937989;29;20051;-80
2021/12/26 12:15:53;;;;;;;4.17;1.90;;;0.80;92.10;;;;;;4961825;29;20102;-81
2021/12/26 12:18:28;;;;;;;7.30;1.83;;;0.80;91.10;;;;;;4961503;28;20075;-80
2021/12/26 12:21:12;;;;;;;2.88;1.30;;;1.00;89.90;;;;;;4961602;28;20050;-79
2021/12/26 12:23:56;;;;;;;4.17;2.00;;;1.10;90.60;;;;;;4961699;28;20043;-80
2021/12/26 12:27:05;;;;;;;3.27;1.67;;;1.30;86.80;;;;;;4963277;29;20051;-80
2021/12/26 12:29:32;;;;;;;3.00;2.10;;;1.40;84.40;;;;;;4949351;28;20050;-81
2021/12/26 12:32:06;;;;;;;5.20;1.73;;;1.70;92.40;;;;;;4964140;29;20111;-80
2021/12/26 12:34:51;;;;;;;5.17;1.53;;;1.80;85.10;;;;;;4961481;28;20043;-79
2021/12/26 12:37:34;;;;;;;2.92;1.73;;;1.90;87.00;;;;;;4945364;29;20819;-80
2021/12/26 12:40:25;;;;;;;5.35;2.25;;;1.90;90.40;;;;;;4963400;29;20149;-81
2021/12/26 12:43:15;;;;;;;4.97;1.90;;;2.10;84.50;;;;;;4962196;29;20131;-81
2021/12/26 12:45:59;;;;;;;5.10;2.38;;;2.00;80.20;;;;;;4965238;29;20035;-81
2021/12/26 12:48:40;;;;;;;3.33;1.73;;;1.90;84.40;;;;;;4960928;28;20062;-80
2021/12/26 12:51:15;;;;;;;5.20;2.83;;;1.80;91.00;;;;;;4960572;28;20175;-80
2021/12/26 12:53:42;;;;;;;4.60;1.77;;;1.70;85.90;;;;;;4945973;28;20102;-79
2021/12/26 12:56:33;;;;;;;4.40;1.67;;;1.60;90.30;;;;;;4961066;29;20039;-80
2021/12/26 12:59:14;;;;;;;5.40;1.87;;;1.60;90.50;;;;;;4962189;28;20051;-80